sensor_id;sensor_type;location;lat;lon;timestamp;temperature;humidity
75493;DHT22;64071;51.466;7.260;2022-10-15T00:01:23;23.00;48.20
75493;DHT22;64071;51.466;7.260;2022-10-15T00:03:49;23.00;48.20
75493;DHT22;64071;51.466;7.260;2022-10-15T00:06:18;23.00;48.20
75493;DHT22;64071;51.466;7.260;2022-10-15T00:08:44;23.00;48.20
75493;DHT22;64071;51.466;7.260;2022-10-15T00:11:13;23.00;48.20
75493;DHT22;64071;51.466;7.260;2022-10-15T00:13:39;23.00;48.20
75493;DHT22;64071;51.466;7.260;2022-10-15T00:16:07;23.00;48.20
75493;DHT22;64071;51.466;7.260;2022-10-15T00:18:34;23.00;48.10
75493;DHT22;64071;51.466;7.260;2022-10-15T00:20:59;23.00;48.10
75493;DHT22;64071;51.466;7.260;2022-10-15T00:23:25;23.00;48.20
75493;DHT22;64071;51.466;7.260;2022-10-15T00:26:03;23.00;48.20
75493;DHT22;64071;51.466;7.260;2022-10-15T00:28:29;23.00;48.20
75493;DHT22;64071;51.466;7.260;2022-10-15T00:30:59;23.00;48.20
75493;DHT22;64071;51.466;7.260;2022-10-15T00:33:25;23.00;48.20
75493;DHT22;64071;51.466;7.260;2022-10-15T00:36:02;23.00;48.20
75493;DHT22;64071;51.466;7.260;2022-10-15T00:38:28;23.00;48.20
75493;DHT22;64071;51.466;7.260;2022-10-15T00:40:54;23.00;48.20
75493;DHT22;64071;51.466;7.260;2022-10-15T00:46:05;23.00;48.20
75493;DHT22;64071;51.466;7.260;2022-10-15T00:48:31;23.00;48.20
75493;DHT22;64071;51.466;7.260;2022-10-15T00:51:00;22.90;48.20
75493;DHT22;64071;51.466;7.260;2022-10-15T00:53:28;23.00;48.20
75493;DHT22;64071;51.466;7.260;2022-10-15T00:55:54;22.90;48.20
75493;DHT22;64071;51.466;7.260;2022-10-15T00:58:20;22.90;48.20
75493;DHT22;64071;51.466;7.260;2022-10-15T01:00:53;22.90;48.20
75493;DHT22;64071;51.466;7.260;2022-10-15T01:03:19;22.90;48.20
75493;DHT22;64071;51.466;7.260;2022-10-15T01:05:48;22.90;48.20
75493;DHT22;64071;51.466;7.260;2022-10-15T01:08:14;22.90;48.30
75493;DHT22;64071;51.466;7.260;2022-10-15T01:16:24;22.90;48.30
75493;DHT22;64071;51.466;7.260;2022-10-15T01:18:56;22.90;48.30
75493;DHT22;64071;51.466;7.260;2022-10-15T01:21:43;22.90;48.30
75493;DHT22;64071;51.466;7.260;2022-10-15T01:37:36;22.90;48.30
75493;DHT22;64071;51.466;7.260;2022-10-15T01:40:09;22.90;48.30
75493;DHT22;64071;51.466;7.260;2022-10-15T01:42:55;22.90;48.30
75493;DHT22;64071;51.466;7.260;2022-10-15T01:45:32;22.90;48.30
75493;DHT22;64071;51.466;7.260;2022-10-15T01:48:03;22.90;48.30
75493;DHT22;64071;51.466;7.260;2022-10-15T01:50:33;22.90;48.30
75493;DHT22;64071;51.466;7.260;2022-10-15T01:52:59;22.90;48.30
75493;DHT22;64071;51.466;7.260;2022-10-15T01:55:26;22.90;48.20
75493;DHT22;64071;51.466;7.260;2022-10-15T01:57:55;22.90;48.30
75493;DHT22;64071;51.466;7.260;2022-10-15T02:00:22;22.90;48.20
75493;DHT22;64071;51.466;7.260;2022-10-15T02:02:47;22.90;48.20
75493;DHT22;64071;51.466;7.260;2022-10-15T02:05:20;22.90;48.20
75493;DHT22;64071;51.466;7.260;2022-10-15T02:07:59;22.90;48.20
75493;DHT22;64071;51.466;7.260;2022-10-15T02:13:31;22.90;48.20
75493;DHT22;64071;51.466;7.260;2022-10-15T02:19:11;22.90;48.10
75493;DHT22;64071;51.466;7.260;2022-10-15T02:22:03;22.90;48.20
75493;DHT22;64071;51.466;7.260;2022-10-15T02:24:51;22.90;48.10
75493;DHT22;64071;51.466;7.260;2022-10-15T02:27:19;22.90;48.20
75493;DHT22;64071;51.466;7.260;2022-10-15T02:29:45;22.80;48.20
75493;DHT22;64071;51.466;7.260;2022-10-15T02:32:13;22.90;48.20
75493;DHT22;64071;51.466;7.260;2022-10-15T02:34:40;22.90;48.20
75493;DHT22;64071;51.466;7.260;2022-10-15T02:37:06;22.90;48.20
75493;DHT22;64071;51.466;7.260;2022-10-15T02:39:32;22.90;48.20
75493;DHT22;64071;51.466;7.260;2022-10-15T02:41:58;22.90;48.20
75493;DHT22;64071;51.466;7.260;2022-10-15T02:44:24;22.90;48.20
75493;DHT22;64071;51.466;7.260;2022-10-15T02:46:50;22.90;48.20
75493;DHT22;64071;51.466;7.260;2022-10-15T02:49:15;22.90;48.10
75493;DHT22;64071;51.466;7.260;2022-10-15T02:51:41;22.90;48.20
75493;DHT22;64071;51.466;7.260;2022-10-15T02:54:07;22.90;48.20
75493;DHT22;64071;51.466;7.260;2022-10-15T02:56:33;22.90;48.20
75493;DHT22;64071;51.466;7.260;2022-10-15T02:58:58;22.80;48.20
75493;DHT22;64071;51.466;7.260;2022-10-15T03:01:24;22.80;48.20
75493;DHT22;64071;51.466;7.260;2022-10-15T03:03:50;22.90;48.20
75493;DHT22;64071;51.466;7.260;2022-10-15T03:06:16;22.80;48.20
75493;DHT22;64071;51.466;7.260;2022-10-15T03:08:42;22.80;48.20
75493;DHT22;64071;51.466;7.260;2022-10-15T03:11:09;22.80;48.20
75493;DHT22;64071;51.466;7.260;2022-10-15T03:13:36;22.80;48.20
75493;DHT22;64071;51.466;7.260;2022-10-15T03:16:05;22.80;48.20
75493;DHT22;64071;51.466;7.260;2022-10-15T03:18:32;22.80;48.20
75493;DHT22;64071;51.466;7.260;2022-10-15T03:20:58;22.80;48.20
75493;DHT22;64071;51.466;7.260;2022-10-15T03:23:24;22.90;48.20
75493;DHT22;64071;51.466;7.260;2022-10-15T03:25:50;22.80;48.10
75493;DHT22;64071;51.466;7.260;2022-10-15T03:28:16;22.80;48.20
75493;DHT22;64071;51.466;7.260;2022-10-15T03:30:42;22.80;48.10
75493;DHT22;64071;51.466;7.260;2022-10-15T03:33:08;22.80;48.20
75493;DHT22;64071;51.466;7.260;2022-10-15T03:35:34;22.80;48.20
75493;DHT22;64071;51.466;7.260;2022-10-15T03:37:59;22.80;48.10
75493;DHT22;64071;51.466;7.260;2022-10-15T03:40:25;22.80;48.20
75493;DHT22;64071;51.466;7.260;2022-10-15T03:42:51;22.80;48.20
75493;DHT22;64071;51.466;7.260;2022-10-15T03:45:18;22.80;48.20
75493;DHT22;64071;51.466;7.260;2022-10-15T03:47:43;22.80;48.20
75493;DHT22;64071;51.466;7.260;2022-10-15T03:50:09;22.80;48.20
75493;DHT22;64071;51.466;7.260;2022-10-15T03:52:38;22.80;48.10
75493;DHT22;64071;51.466;7.260;2022-10-15T03:55:05;22.80;48.10
75493;DHT22;64071;51.466;7.260;2022-10-15T03:57:31;22.90;48.10
75493;DHT22;64071;51.466;7.260;2022-10-15T03:59:56;22.80;48.10
75493;DHT22;64071;51.466;7.260;2022-10-15T04:02:22;22.90;48.10
75493;DHT22;64071;51.466;7.260;2022-10-15T04:04:51;22.90;48.00
75493;DHT22;64071;51.466;7.260;2022-10-15T04:07:20;22.80;48.00
75493;DHT22;64071;51.466;7.260;2022-10-15T04:09:46;22.80;48.00
75493;DHT22;64071;51.466;7.260;2022-10-15T04:12:12;22.90;48.00
75493;DHT22;64071;51.466;7.260;2022-10-15T04:14:39;22.80;48.00
75493;DHT22;64071;51.466;7.260;2022-10-15T04:17:04;22.80;48.00
75493;DHT22;64071;51.466;7.260;2022-10-15T04:19:30;22.90;48.00
75493;DHT22;64071;51.466;7.260;2022-10-15T04:21:56;22.80;48.00
75493;DHT22;64071;51.466;7.260;2022-10-15T04:24:22;22.80;48.00
75493;DHT22;64071;51.466;7.260;2022-10-15T04:26:47;22.90;48.00
75493;DHT22;64071;51.466;7.260;2022-10-15T04:29:13;22.90;48.00
75493;DHT22;64071;51.466;7.260;2022-10-15T04:31:38;22.80;48.00
75493;DHT22;64071;51.466;7.260;2022-10-15T04:34:04;22.80;48.00
75493;DHT22;64071;51.466;7.260;2022-10-15T04:36:30;22.80;48.00
75493;DHT22;64071;51.466;7.260;2022-10-15T04:38:56;22.80;48.00
75493;DHT22;64071;51.466;7.260;2022-10-15T04:41:21;22.80;48.00
75493;DHT22;64071;51.466;7.260;2022-10-15T04:43:47;22.80;48.10
75493;DHT22;64071;51.466;7.260;2022-10-15T04:46:13;22.80;48.00
75493;DHT22;64071;51.466;7.260;2022-10-15T04:48:38;22.80;48.00
75493;DHT22;64071;51.466;7.260;2022-10-15T04:51:15;22.80;48.00
75493;DHT22;64071;51.466;7.260;2022-10-15T04:53:41;22.80;48.10
75493;DHT22;64071;51.466;7.260;2022-10-15T04:56:10;22.80;48.10
75493;DHT22;64071;51.466;7.260;2022-10-15T04:58:38;22.80;48.10
75493;DHT22;64071;51.466;7.260;2022-10-15T05:01:08;22.80;48.00
75493;DHT22;64071;51.466;7.260;2022-10-15T05:03:38;22.80;48.10
75493;DHT22;64071;51.466;7.260;2022-10-15T05:06:06;22.80;48.10
75493;DHT22;64071;51.466;7.260;2022-10-15T05:08:35;22.80;48.10
75493;DHT22;64071;51.466;7.260;2022-10-15T05:11:02;22.80;48.10
75493;DHT22;64071;51.466;7.260;2022-10-15T05:13:28;22.70;48.10
75493;DHT22;64071;51.466;7.260;2022-10-15T05:15:54;22.80;48.10
75493;DHT22;64071;51.466;7.260;2022-10-15T05:18:19;22.70;48.20
75493;DHT22;64071;51.466;7.260;2022-10-15T05:20:45;22.70;48.30
75493;DHT22;64071;51.466;7.260;2022-10-15T05:23:10;22.70;48.40
75493;DHT22;64071;51.466;7.260;2022-10-15T05:25:36;22.70;48.50
75493;DHT22;64071;51.466;7.260;2022-10-15T05:28:02;22.70;48.50
75493;DHT22;64071;51.466;7.260;2022-10-15T05:30:27;22.70;48.60
75493;DHT22;64071;51.466;7.260;2022-10-15T05:32:53;22.70;48.60
75493;DHT22;64071;51.466;7.260;2022-10-15T05:35:19;22.70;48.60
75493;DHT22;64071;51.466;7.260;2022-10-15T05:37:45;22.70;48.60
75493;DHT22;64071;51.466;7.260;2022-10-15T05:40:11;22.70;48.70
75493;DHT22;64071;51.466;7.260;2022-10-15T05:42:36;22.70;48.70
75493;DHT22;64071;51.466;7.260;2022-10-15T05:45:02;22.70;48.70
75493;DHT22;64071;51.466;7.260;2022-10-15T05:47:28;22.70;48.70
75493;DHT22;64071;51.466;7.260;2022-10-15T05:49:53;22.70;48.80
75493;DHT22;64071;51.466;7.260;2022-10-15T05:52:19;22.70;48.70
75493;DHT22;64071;51.466;7.260;2022-10-15T05:54:45;22.70;48.70
75493;DHT22;64071;51.466;7.260;2022-10-15T05:57:10;22.70;48.70
75493;DHT22;64071;51.466;7.260;2022-10-15T05:59:36;22.70;48.80
75493;DHT22;64071;51.466;7.260;2022-10-15T06:02:01;22.80;48.80
75493;DHT22;64071;51.466;7.260;2022-10-15T06:04:27;22.80;48.80
75493;DHT22;64071;51.466;7.260;2022-10-15T06:06:52;22.70;48.80
75493;DHT22;64071;51.466;7.260;2022-10-15T06:09:18;22.70;48.80
75493;DHT22;64071;51.466;7.260;2022-10-15T06:11:44;22.70;48.80
75493;DHT22;64071;51.466;7.260;2022-10-15T06:14:09;22.70;48.80
75493;DHT22;64071;51.466;7.260;2022-10-15T06:16:36;22.70;48.80
75493;DHT22;64071;51.466;7.260;2022-10-15T06:19:02;22.70;48.90
75493;DHT22;64071;51.466;7.260;2022-10-15T06:21:28;22.70;48.90
75493;DHT22;64071;51.466;7.260;2022-10-15T06:23:54;22.70;48.90
75493;DHT22;64071;51.466;7.260;2022-10-15T06:26:19;22.70;48.90
75493;DHT22;64071;51.466;7.260;2022-10-15T06:28:45;22.70;48.90
75493;DHT22;64071;51.466;7.260;2022-10-15T06:31:10;22.80;48.90
75493;DHT22;64071;51.466;7.260;2022-10-15T06:33:36;22.80;48.90
75493;DHT22;64071;51.466;7.260;2022-10-15T06:36:04;22.80;49.00
75493;DHT22;64071;51.466;7.260;2022-10-15T06:38:30;22.80;49.00
75493;DHT22;64071;51.466;7.260;2022-10-15T06:40:56;22.80;49.00
75493;DHT22;64071;51.466;7.260;2022-10-15T06:43:21;22.70;49.00
75493;DHT22;64071;51.466;7.260;2022-10-15T06:45:47;22.80;49.00
75493;DHT22;64071;51.466;7.260;2022-10-15T06:48:13;22.80;49.10
75493;DHT22;64071;51.466;7.260;2022-10-15T06:50:39;22.70;49.10
75493;DHT22;64071;51.466;7.260;2022-10-15T06:53:05;22.70;49.10
75493;DHT22;64071;51.466;7.260;2022-10-15T06:55:31;22.80;49.10
75493;DHT22;64071;51.466;7.260;2022-10-15T06:57:57;22.80;49.10
75493;DHT22;64071;51.466;7.260;2022-10-15T07:00:23;22.70;49.10
75493;DHT22;64071;51.466;7.260;2022-10-15T07:02:49;22.70;49.10
75493;DHT22;64071;51.466;7.260;2022-10-15T07:05:15;22.70;49.10
75493;DHT22;64071;51.466;7.260;2022-10-15T07:07:40;22.70;49.10
75493;DHT22;64071;51.466;7.260;2022-10-15T07:10:06;22.80;49.10
75493;DHT22;64071;51.466;7.260;2022-10-15T07:12:32;22.70;49.10
75493;DHT22;64071;51.466;7.260;2022-10-15T07:14:58;22.70;49.10
75493;DHT22;64071;51.466;7.260;2022-10-15T07:17:23;22.70;49.10
75493;DHT22;64071;51.466;7.260;2022-10-15T07:19:49;22.80;49.20
75493;DHT22;64071;51.466;7.260;2022-10-15T07:22:17;22.70;49.10
75493;DHT22;64071;51.466;7.260;2022-10-15T07:24:43;22.70;49.10
75493;DHT22;64071;51.466;7.260;2022-10-15T07:27:08;22.70;49.10
75493;DHT22;64071;51.466;7.260;2022-10-15T07:29:34;22.80;49.20
75493;DHT22;64071;51.466;7.260;2022-10-15T07:32:00;22.80;49.20
75493;DHT22;64071;51.466;7.260;2022-10-15T07:34:25;22.80;49.10
75493;DHT22;64071;51.466;7.260;2022-10-15T07:36:51;22.80;49.10
75493;DHT22;64071;51.466;7.260;2022-10-15T07:39:16;22.80;49.10
75493;DHT22;64071;51.466;7.260;2022-10-15T07:41:44;22.80;49.10
75493;DHT22;64071;51.466;7.260;2022-10-15T07:44:10;22.80;49.10
75493;DHT22;64071;51.466;7.260;2022-10-15T07:46:35;22.80;49.10
75493;DHT22;64071;51.466;7.260;2022-10-15T07:49:01;22.80;49.10
75493;DHT22;64071;51.466;7.260;2022-10-15T07:51:27;22.80;49.20
75493;DHT22;64071;51.466;7.260;2022-10-15T07:53:52;22.80;49.20
75493;DHT22;64071;51.466;7.260;2022-10-15T07:56:18;22.80;49.20
75493;DHT22;64071;51.466;7.260;2022-10-15T07:58:43;22.80;49.20
75493;DHT22;64071;51.466;7.260;2022-10-15T08:01:17;22.80;49.20
75493;DHT22;64071;51.466;7.260;2022-10-15T08:03:42;22.80;49.20
75493;DHT22;64071;51.466;7.260;2022-10-15T08:06:08;22.80;49.30
75493;DHT22;64071;51.466;7.260;2022-10-15T08:08:34;22.80;49.30
75493;DHT22;64071;51.466;7.260;2022-10-15T08:11:12;22.80;49.30
75493;DHT22;64071;51.466;7.260;2022-10-15T08:13:38;22.80;49.30
75493;DHT22;64071;51.466;7.260;2022-10-15T08:16:05;22.80;49.30
75493;DHT22;64071;51.466;7.260;2022-10-15T08:18:31;22.80;49.30
75493;DHT22;64071;51.466;7.260;2022-10-15T08:21:00;22.80;49.30
75493;DHT22;64071;51.466;7.260;2022-10-15T08:23:27;22.80;49.20
75493;DHT22;64071;51.466;7.260;2022-10-15T08:25:52;22.90;49.20
75493;DHT22;64071;51.466;7.260;2022-10-15T08:28:18;22.90;49.10
75493;DHT22;64071;51.466;7.260;2022-10-15T08:30:43;22.90;49.20
75493;DHT22;64071;51.466;7.260;2022-10-15T08:33:09;22.90;49.10
75493;DHT22;64071;51.466;7.260;2022-10-15T08:35:35;22.90;49.00
75493;DHT22;64071;51.466;7.260;2022-10-15T08:38:04;22.90;49.00
75493;DHT22;64071;51.466;7.260;2022-10-15T08:40:29;22.90;49.00
75493;DHT22;64071;51.466;7.260;2022-10-15T08:42:55;22.90;48.90
75493;DHT22;64071;51.466;7.260;2022-10-15T08:45:27;22.90;48.90
75493;DHT22;64071;51.466;7.260;2022-10-15T08:48:04;22.90;48.90
75493;DHT22;64071;51.466;7.260;2022-10-15T08:53:01;22.90;48.90
75493;DHT22;64071;51.466;7.260;2022-10-15T08:55:32;22.90;48.90
75493;DHT22;64071;51.466;7.260;2022-10-15T08:58:15;22.90;48.80
75493;DHT22;64071;51.466;7.260;2022-10-15T09:00:51;22.90;48.80
75493;DHT22;64071;51.466;7.260;2022-10-15T09:03:32;23.00;48.90
75493;DHT22;64071;51.466;7.260;2022-10-15T09:06:15;23.00;48.90
75493;DHT22;64071;51.466;7.260;2022-10-15T09:14:02;23.00;48.90
75493;DHT22;64071;51.466;7.260;2022-10-15T09:16:34;23.00;48.90
75493;DHT22;64071;51.466;7.260;2022-10-15T09:19:03;23.00;48.80
75493;DHT22;64071;51.466;7.260;2022-10-15T09:21:31;23.00;48.80
75493;DHT22;64071;51.466;7.260;2022-10-15T09:24:03;23.00;48.80
75493;DHT22;64071;51.466;7.260;2022-10-15T09:26:55;23.00;48.80
75493;DHT22;64071;51.466;7.260;2022-10-15T09:43:32;23.00;48.70
75493;DHT22;64071;51.466;7.260;2022-10-15T09:46:01;23.00;48.70
75493;DHT22;64071;51.466;7.260;2022-10-15T09:48:31;23.00;48.70
75493;DHT22;64071;51.466;7.260;2022-10-15T09:51:03;23.00;48.70
75493;DHT22;64071;51.466;7.260;2022-10-15T09:56:17;23.00;48.60
75493;DHT22;64071;51.466;7.260;2022-10-15T09:58:51;23.10;48.60
75493;DHT22;64071;51.466;7.260;2022-10-15T10:01:22;23.10;48.60
75493;DHT22;64071;51.466;7.260;2022-10-15T10:03:52;23.10;48.50
75493;DHT22;64071;51.466;7.260;2022-10-15T10:06:18;23.10;48.40
75493;DHT22;64071;51.466;7.260;2022-10-15T10:08:57;23.10;48.40
75493;DHT22;64071;51.466;7.260;2022-10-15T10:11:25;23.10;48.40
75493;DHT22;64071;51.466;7.260;2022-10-15T10:13:54;23.10;48.40
75493;DHT22;64071;51.466;7.260;2022-10-15T10:16:21;23.10;48.40
75493;DHT22;64071;51.466;7.260;2022-10-15T10:19:04;23.10;48.40
75493;DHT22;64071;51.466;7.260;2022-10-15T10:21:35;23.10;48.40
75493;DHT22;64071;51.466;7.260;2022-10-15T10:26:46;23.10;48.50
75493;DHT22;64071;51.466;7.260;2022-10-15T10:29:20;23.10;48.60
75493;DHT22;64071;51.466;7.260;2022-10-15T10:31:47;23.10;48.60
75493;DHT22;64071;51.466;7.260;2022-10-15T10:34:25;23.10;48.60
75493;DHT22;64071;51.466;7.260;2022-10-15T10:36:52;23.20;48.60
75493;DHT22;64071;51.466;7.260;2022-10-15T10:39:25;23.20;48.60
75493;DHT22;64071;51.466;7.260;2022-10-15T10:44:39;23.20;48.70
75493;DHT22;64071;51.466;7.260;2022-10-15T10:49:37;23.20;48.80
75493;DHT22;64071;51.466;7.260;2022-10-15T10:52:04;23.20;48.80
75493;DHT22;64071;51.466;7.260;2022-10-15T10:54:31;23.20;48.80
75493;DHT22;64071;51.466;7.260;2022-10-15T10:56:58;23.20;48.80
75493;DHT22;64071;51.466;7.260;2022-10-15T10:59:39;23.20;48.90
75493;DHT22;64071;51.466;7.260;2022-10-15T11:02:12;23.20;48.90
75493;DHT22;64071;51.466;7.260;2022-10-15T11:04:38;23.20;49.00
75493;DHT22;64071;51.466;7.260;2022-10-15T11:07:16;23.20;49.00
75493;DHT22;64071;51.466;7.260;2022-10-15T11:18:20;23.20;49.40
75493;DHT22;64071;51.466;7.260;2022-10-15T11:27:06;23.20;49.70
75493;DHT22;64071;51.466;7.260;2022-10-15T11:35:59;23.20;50.00
75493;DHT22;64071;51.466;7.260;2022-10-15T11:39:33;23.20;50.00
75493;DHT22;64071;51.466;7.260;2022-10-15T11:45:16;23.20;50.10
75493;DHT22;64071;51.466;7.260;2022-10-15T11:50:26;23.30;50.10
75493;DHT22;64071;51.466;7.260;2022-10-15T11:53:25;23.30;50.30
75493;DHT22;64071;51.466;7.260;2022-10-15T11:56:11;23.30;50.30
75493;DHT22;64071;51.466;7.260;2022-10-15T11:58:39;23.30;50.30
75493;DHT22;64071;51.466;7.260;2022-10-15T12:01:14;23.30;50.40
75493;DHT22;64071;51.466;7.260;2022-10-15T12:03:52;23.30;50.40
75493;DHT22;64071;51.466;7.260;2022-10-15T12:06:21;23.30;50.40
75493;DHT22;64071;51.466;7.260;2022-10-15T12:08:49;23.30;50.30
75493;DHT22;64071;51.466;7.260;2022-10-15T12:11:41;23.30;50.40
75493;DHT22;64071;51.466;7.260;2022-10-15T12:14:48;23.30;50.50
75493;DHT22;64071;51.466;7.260;2022-10-15T12:18:07;23.40;50.50
75493;DHT22;64071;51.466;7.260;2022-10-15T12:20:15;23.30;50.50
75493;DHT22;64071;51.466;7.260;2022-10-15T12:22:55;23.40;50.50
75493;DHT22;64071;51.466;7.260;2022-10-15T12:28:25;23.40;50.70
75493;DHT22;64071;51.466;7.260;2022-10-15T12:31:01;23.40;50.60
75493;DHT22;64071;51.466;7.260;2022-10-15T12:35:55;23.40;50.80
75493;DHT22;64071;51.466;7.260;2022-10-15T12:41:13;23.40;50.80
75493;DHT22;64071;51.466;7.260;2022-10-15T12:43:42;23.40;50.90
75493;DHT22;64071;51.466;7.260;2022-10-15T12:46:09;23.40;50.90
75493;DHT22;64071;51.466;7.260;2022-10-15T12:48:41;23.40;51.00
75493;DHT22;64071;51.466;7.260;2022-10-15T12:53:53;23.40;51.10
75493;DHT22;64071;51.466;7.260;2022-10-15T12:56:37;23.40;51.10
75493;DHT22;64071;51.466;7.260;2022-10-15T12:59:27;23.40;51.20
75493;DHT22;64071;51.466;7.260;2022-10-15T13:01:52;23.40;51.20
75493;DHT22;64071;51.466;7.260;2022-10-15T13:04:18;23.40;51.20
75493;DHT22;64071;51.466;7.260;2022-10-15T13:06:44;23.40;51.20
75493;DHT22;64071;51.466;7.260;2022-10-15T13:14:12;23.40;51.40
75493;DHT22;64071;51.466;7.260;2022-10-15T13:16:43;23.40;51.40
75493;DHT22;64071;51.466;7.260;2022-10-15T13:19:21;23.40;51.40
75493;DHT22;64071;51.466;7.260;2022-10-15T13:21:53;23.40;51.50
75493;DHT22;64071;51.466;7.260;2022-10-15T13:24:25;23.40;51.50
75493;DHT22;64071;51.466;7.260;2022-10-15T13:26:53;23.40;51.60
75493;DHT22;64071;51.466;7.260;2022-10-15T13:29:22;23.50;51.60
75493;DHT22;64071;51.466;7.260;2022-10-15T13:31:48;23.40;51.60
75493;DHT22;64071;51.466;7.260;2022-10-15T13:36:54;23.40;51.60
75493;DHT22;64071;51.466;7.260;2022-10-15T13:39:38;23.50;51.70
75493;DHT22;64071;51.466;7.260;2022-10-15T13:42:21;23.50;51.70
75493;DHT22;64071;51.466;7.260;2022-10-15T13:47:31;23.50;51.80
75493;DHT22;64071;51.466;7.260;2022-10-15T13:50:19;23.50;51.70
75493;DHT22;64071;51.466;7.260;2022-10-15T13:53:09;23.50;51.80
75493;DHT22;64071;51.466;7.260;2022-10-15T13:55:38;23.50;51.70
75493;DHT22;64071;51.466;7.260;2022-10-15T14:00:49;23.50;51.70
75493;DHT22;64071;51.466;7.260;2022-10-15T14:03:24;23.50;51.60
75493;DHT22;64071;51.466;7.260;2022-10-15T14:05:52;23.50;51.60
75493;DHT22;64071;51.466;7.260;2022-10-15T14:08:38;23.60;51.60
75493;DHT22;64071;51.466;7.260;2022-10-15T14:11:03;23.60;51.70
75493;DHT22;64071;51.466;7.260;2022-10-15T14:13:29;23.60;51.70
75493;DHT22;64071;51.466;7.260;2022-10-15T14:16:11;23.60;51.60
75493;DHT22;64071;51.466;7.260;2022-10-15T14:18:44;23.60;51.70
75493;DHT22;64071;51.466;7.260;2022-10-15T14:21:13;23.60;51.60
75493;DHT22;64071;51.466;7.260;2022-10-15T14:23:40;23.60;51.70
75493;DHT22;64071;51.466;7.260;2022-10-15T14:26:07;23.70;51.50
75493;DHT22;64071;51.466;7.260;2022-10-15T14:28:35;23.70;51.40
75493;DHT22;64071;51.466;7.260;2022-10-15T14:31:01;23.60;51.60
75493;DHT22;64071;51.466;7.260;2022-10-15T14:36:21;23.70;51.60
75493;DHT22;64071;51.466;7.260;2022-10-15T14:38:47;23.70;51.50
75493;DHT22;64071;51.466;7.260;2022-10-15T14:41:30;23.70;51.60
75493;DHT22;64071;51.466;7.260;2022-10-15T14:46:42;23.70;51.70
75493;DHT22;64071;51.466;7.260;2022-10-15T14:49:19;23.70;51.50
75493;DHT22;64071;51.466;7.260;2022-10-15T14:52:03;23.70;51.50
75493;DHT22;64071;51.466;7.260;2022-10-15T14:54:37;23.70;51.60
75493;DHT22;64071;51.466;7.260;2022-10-15T14:57:03;23.70;51.50
75493;DHT22;64071;51.466;7.260;2022-10-15T14:59:33;23.70;51.60
75493;DHT22;64071;51.466;7.260;2022-10-15T15:02:01;23.70;51.70
75493;DHT22;64071;51.466;7.260;2022-10-15T15:04:36;23.70;51.50
75493;DHT22;64071;51.466;7.260;2022-10-15T15:07:09;23.70;51.70
75493;DHT22;64071;51.466;7.260;2022-10-15T15:09:36;23.70;51.70
75493;DHT22;64071;51.466;7.260;2022-10-15T15:12:04;23.70;51.70
75493;DHT22;64071;51.466;7.260;2022-10-15T15:14:30;23.70;51.50
75493;DHT22;64071;51.466;7.260;2022-10-15T15:16:55;23.70;51.40
75493;DHT22;64071;51.466;7.260;2022-10-15T15:19:21;23.60;51.40
75493;DHT22;64071;51.466;7.260;2022-10-15T15:21:46;23.60;51.40
75493;DHT22;64071;51.466;7.260;2022-10-15T15:24:12;23.60;51.40
75493;DHT22;64071;51.466;7.260;2022-10-15T15:26:38;23.60;51.30
75493;DHT22;64071;51.466;7.260;2022-10-15T15:29:10;23.60;51.30
75493;DHT22;64071;51.466;7.260;2022-10-15T15:31:37;23.60;51.30
75493;DHT22;64071;51.466;7.260;2022-10-15T15:34:02;23.60;51.30
75493;DHT22;64071;51.466;7.260;2022-10-15T15:36:28;23.60;51.20
75493;DHT22;64071;51.466;7.260;2022-10-15T15:38:53;23.60;51.30
75493;DHT22;64071;51.466;7.260;2022-10-15T15:41:23;23.60;51.20
75493;DHT22;64071;51.466;7.260;2022-10-15T15:43:50;23.60;51.20
75493;DHT22;64071;51.466;7.260;2022-10-15T15:46:16;23.60;51.20
75493;DHT22;64071;51.466;7.260;2022-10-15T15:48:42;23.60;51.20
75493;DHT22;64071;51.466;7.260;2022-10-15T15:51:29;23.50;51.20
75493;DHT22;64071;51.466;7.260;2022-10-15T15:53:56;23.50;51.20
75493;DHT22;64071;51.466;7.260;2022-10-15T15:56:22;23.50;51.10
75493;DHT22;64071;51.466;7.260;2022-10-15T15:58:48;23.50;51.10
75493;DHT22;64071;51.466;7.260;2022-10-15T16:01:18;23.50;51.10
75493;DHT22;64071;51.466;7.260;2022-10-15T16:03:43;23.50;51.10
75493;DHT22;64071;51.466;7.260;2022-10-15T16:06:09;23.50;51.10
75493;DHT22;64071;51.466;7.260;2022-10-15T16:08:35;23.50;51.10
75493;DHT22;64071;51.466;7.260;2022-10-15T16:11:02;23.50;51.10
75493;DHT22;64071;51.466;7.260;2022-10-15T16:13:28;23.50;51.10
75493;DHT22;64071;51.466;7.260;2022-10-15T16:15:54;23.50;51.10
75493;DHT22;64071;51.466;7.260;2022-10-15T16:18:19;23.50;51.00
75493;DHT22;64071;51.466;7.260;2022-10-15T16:20:45;23.40;51.10
75493;DHT22;64071;51.466;7.260;2022-10-15T16:23:10;23.40;51.10
75493;DHT22;64071;51.466;7.260;2022-10-15T16:25:36;23.40;51.10
75493;DHT22;64071;51.466;7.260;2022-10-15T16:28:02;23.40;51.10
75493;DHT22;64071;51.466;7.260;2022-10-15T16:30:28;23.40;51.00
75493;DHT22;64071;51.466;7.260;2022-10-15T16:32:53;23.40;51.10
75493;DHT22;64071;51.466;7.260;2022-10-15T16:35:19;23.40;51.00
75493;DHT22;64071;51.466;7.260;2022-10-15T16:37:44;23.40;51.00
75493;DHT22;64071;51.466;7.260;2022-10-15T16:40:10;23.40;51.00
75493;DHT22;64071;51.466;7.260;2022-10-15T16:42:36;23.40;51.00
75493;DHT22;64071;51.466;7.260;2022-10-15T16:45:02;23.40;51.00
75493;DHT22;64071;51.466;7.260;2022-10-15T16:47:28;23.40;51.00
75493;DHT22;64071;51.466;7.260;2022-10-15T16:49:53;23.40;51.00
75493;DHT22;64071;51.466;7.260;2022-10-15T16:52:19;23.40;51.00
75493;DHT22;64071;51.466;7.260;2022-10-15T16:54:45;23.40;51.00
75493;DHT22;64071;51.466;7.260;2022-10-15T16:57:11;23.40;51.00
75493;DHT22;64071;51.466;7.260;2022-10-15T16:59:36;23.40;51.00
75493;DHT22;64071;51.466;7.260;2022-10-15T17:02:02;23.40;51.00
75493;DHT22;64071;51.466;7.260;2022-10-15T17:04:28;23.40;51.00
75493;DHT22;64071;51.466;7.260;2022-10-15T17:06:54;23.30;51.00
75493;DHT22;64071;51.466;7.260;2022-10-15T17:09:19;23.30;51.00
75493;DHT22;64071;51.466;7.260;2022-10-15T17:11:45;23.30;51.00
75493;DHT22;64071;51.466;7.260;2022-10-15T17:14:15;23.30;50.90
75493;DHT22;64071;51.466;7.260;2022-10-15T17:16:44;23.30;50.90
75493;DHT22;64071;51.466;7.260;2022-10-15T17:19:11;23.30;50.90
75493;DHT22;64071;51.466;7.260;2022-10-15T17:21:37;23.30;51.00
75493;DHT22;64071;51.466;7.260;2022-10-15T17:24:05;23.30;50.90
75493;DHT22;64071;51.466;7.260;2022-10-15T17:26:32;23.30;50.90
75493;DHT22;64071;51.466;7.260;2022-10-15T17:29:01;23.30;50.90
75493;DHT22;64071;51.466;7.260;2022-10-15T17:31:27;23.30;50.90
75493;DHT22;64071;51.466;7.260;2022-10-15T17:33:55;23.30;50.90
75493;DHT22;64071;51.466;7.260;2022-10-15T17:36:22;23.30;50.90
75493;DHT22;64071;51.466;7.260;2022-10-15T17:38:48;23.30;50.90